sensor_id;sensor_type;location;lat;lon;timestamp;P1;durP1;ratioP1;P2;durP2;ratioP2
16626;SDS011;8427;52.204;7.202;2023-04-24T00:00:51;46.60;;;42.43;;
16626;SDS011;8427;52.204;7.202;2023-04-24T00:03:19;51.83;;;46.30;;
16626;SDS011;8427;52.204;7.202;2023-04-24T00:05:48;46.40;;;42.27;;
16626;SDS011;8427;52.204;7.202;2023-04-24T00:08:17;49.23;;;44.27;;
16626;SDS011;8427;52.204;7.202;2023-04-24T00:10:45;47.83;;;43.30;;
16626;SDS011;8427;52.204;7.202;2023-04-24T00:13:13;45.60;;;41.70;;
16626;SDS011;8427;52.204;7.202;2023-04-24T00:15:43;52.70;;;47.07;;
16626;SDS011;8427;52.204;7.202;2023-04-24T00:18:11;46.27;;;42.13;;
16626;SDS011;8427;52.204;7.202;2023-04-24T00:20:39;43.70;;;40.30;;
16626;SDS011;8427;52.204;7.202;2023-04-24T00:23:09;65.57;;;51.03;;
16626;SDS011;8427;52.204;7.202;2023-04-24T00:25:37;46.80;;;42.63;;
16626;SDS011;8427;52.204;7.202;2023-04-24T00:28:06;46.13;;;42.03;;
16626;SDS011;8427;52.204;7.202;2023-04-24T00:30:34;46.97;;;42.70;;
16626;SDS011;8427;52.204;7.202;2023-04-24T00:33:03;49.47;;;44.53;;
16626;SDS011;8427;52.204;7.202;2023-04-24T00:35:31;47.27;;;42.93;;
16626;SDS011;8427;52.204;7.202;2023-04-24T00:37:59;46.33;;;42.30;;
16626;SDS011;8427;52.204;7.202;2023-04-24T00:40:27;48.17;;;43.50;;
16626;SDS011;8427;52.204;7.202;2023-04-24T00:42:55;47.40;;;42.87;;
16626;SDS011;8427;52.204;7.202;2023-04-24T00:45:24;52.40;;;46.77;;
16626;SDS011;8427;52.204;7.202;2023-04-24T00:47:52;51.83;;;46.27;;
16626;SDS011;8427;52.204;7.202;2023-04-24T00:53:14;65.73;;;50.93;;
16626;SDS011;8427;52.204;7.202;2023-04-24T01:10:33;50.80;;;45.50;;
16626;SDS011;8427;52.204;7.202;2023-04-24T01:13:03;48.30;;;43.67;;
16626;SDS011;8427;52.204;7.202;2023-04-24T01:15:31;51.00;;;45.83;;
16626;SDS011;8427;52.204;7.202;2023-04-24T01:17:59;50.10;;;45.03;;
16626;SDS011;8427;52.204;7.202;2023-04-24T01:20:27;53.73;;;46.97;;
16626;SDS011;8427;52.204;7.202;2023-04-24T01:22:59;52.70;;;46.47;;
16626;SDS011;8427;52.204;7.202;2023-04-24T01:25:27;51.03;;;45.63;;
16626;SDS011;8427;52.204;7.202;2023-04-24T01:27:55;45.70;;;41.63;;
16626;SDS011;8427;52.204;7.202;2023-04-24T01:30:23;52.50;;;45.83;;
16626;SDS011;8427;52.204;7.202;2023-04-24T01:32:52;46.23;;;42.07;;
16626;SDS011;8427;52.204;7.202;2023-04-24T01:35:20;52.40;;;46.23;;
16626;SDS011;8427;52.204;7.202;2023-04-24T01:37:48;54.33;;;46.63;;
16626;SDS011;8427;52.204;7.202;2023-04-24T01:40:17;60.70;;;48.90;;
16626;SDS011;8427;52.204;7.202;2023-04-24T01:42:45;51.87;;;46.30;;
16626;SDS011;8427;52.204;7.202;2023-04-24T01:45:14;47.33;;;42.77;;
16626;SDS011;8427;52.204;7.202;2023-04-24T01:47:42;47.57;;;43.00;;
16626;SDS011;8427;52.204;7.202;2023-04-24T01:50:10;49.77;;;44.73;;
16626;SDS011;8427;52.204;7.202;2023-04-24T01:52:38;55.40;;;47.40;;
16626;SDS011;8427;52.204;7.202;2023-04-24T01:55:06;46.37;;;42.27;;
16626;SDS011;8427;52.204;7.202;2023-04-24T01:57:36;45.30;;;41.47;;
16626;SDS011;8427;52.204;7.202;2023-04-24T02:00:05;48.03;;;43.40;;
16626;SDS011;8427;52.204;7.202;2023-04-24T02:02:34;49.20;;;44.27;;
16626;SDS011;8427;52.204;7.202;2023-04-24T02:05:03;46.27;;;42.20;;
16626;SDS011;8427;52.204;7.202;2023-04-24T02:07:34;46.80;;;42.53;;
16626;SDS011;8427;52.204;7.202;2023-04-24T02:10:02;48.50;;;43.77;;
16626;SDS011;8427;52.204;7.202;2023-04-24T02:12:31;49.53;;;44.47;;
16626;SDS011;8427;52.204;7.202;2023-04-24T02:15:00;49.73;;;44.67;;
16626;SDS011;8427;52.204;7.202;2023-04-24T02:17:29;60.30;;;48.93;;
16626;SDS011;8427;52.204;7.202;2023-04-24T02:19:57;48.40;;;43.80;;
16626;SDS011;8427;52.204;7.202;2023-04-24T02:22:25;52.13;;;46.47;;
16626;SDS011;8427;52.204;7.202;2023-04-24T02:24:53;46.60;;;42.33;;
16626;SDS011;8427;52.204;7.202;2023-04-24T02:27:21;54.73;;;47.57;;
16626;SDS011;8427;52.204;7.202;2023-04-24T02:29:49;50.97;;;45.57;;
16626;SDS011;8427;52.204;7.202;2023-04-24T02:32:18;48.23;;;43.43;;
16626;SDS011;8427;52.204;7.202;2023-04-24T02:34:46;46.77;;;42.47;;
16626;SDS011;8427;52.204;7.202;2023-04-24T02:37:14;47.63;;;43.10;;
16626;SDS011;8427;52.204;7.202;2023-04-24T02:39:42;48.83;;;43.90;;
16626;SDS011;8427;52.204;7.202;2023-04-24T02:42:10;46.57;;;42.37;;
16626;SDS011;8427;52.204;7.202;2023-04-24T02:44:38;46.07;;;42.00;;
16626;SDS011;8427;52.204;7.202;2023-04-24T02:47:07;46.93;;;42.53;;
16626;SDS011;8427;52.204;7.202;2023-04-24T02:49:36;49.03;;;44.10;;
16626;SDS011;8427;52.204;7.202;2023-04-24T02:52:13;49.40;;;44.40;;
16626;SDS011;8427;52.204;7.202;2023-04-24T02:54:42;49.27;;;44.33;;
16626;SDS011;8427;52.204;7.202;2023-04-24T02:57:10;49.27;;;44.33;;
16626;SDS011;8427;52.204;7.202;2023-04-24T02:59:38;44.77;;;41.00;;
16626;SDS011;8427;52.204;7.202;2023-04-24T03:02:06;44.57;;;40.87;;
16626;SDS011;8427;52.204;7.202;2023-04-24T03:04:36;50.80;;;45.33;;
16626;SDS011;8427;52.204;7.202;2023-04-24T03:07:04;48.00;;;43.37;;
16626;SDS011;8427;52.204;7.202;2023-04-24T03:09:32;49.23;;;44.20;;
16626;SDS011;8427;52.204;7.202;2023-04-24T03:12:00;49.17;;;44.27;;
16626;SDS011;8427;52.204;7.202;2023-04-24T03:14:28;48.83;;;43.97;;
16626;SDS011;8427;52.204;7.202;2023-04-24T03:16:57;47.47;;;42.93;;
16626;SDS011;8427;52.204;7.202;2023-04-24T03:19:25;44.83;;;41.00;;
16626;SDS011;8427;52.204;7.202;2023-04-24T03:21:55;48.57;;;43.93;;
16626;SDS011;8427;52.204;7.202;2023-04-24T03:24:23;44.10;;;40.50;;
16626;SDS011;8427;52.204;7.202;2023-04-24T03:26:54;46.07;;;42.00;;
16626;SDS011;8427;52.204;7.202;2023-04-24T03:29:23;48.17;;;43.47;;
16626;SDS011;8427;52.204;7.202;2023-04-24T03:31:51;48.90;;;43.97;;
16626;SDS011;8427;52.204;7.202;2023-04-24T03:34:19;47.80;;;43.17;;
16626;SDS011;8427;52.204;7.202;2023-04-24T03:36:47;59.23;;;48.30;;
16626;SDS011;8427;52.204;7.202;2023-04-24T03:39:16;69.97;;;54.40;;
16626;SDS011;8427;52.204;7.202;2023-04-24T03:41:44;51.03;;;45.57;;
16626;SDS011;8427;52.204;7.202;2023-04-24T03:44:12;49.33;;;44.27;;
16626;SDS011;8427;52.204;7.202;2023-04-24T03:46:40;74.73;;;52.80;;
16626;SDS011;8427;52.204;7.202;2023-04-24T03:49:28;91.77;;;65.30;;
16626;SDS011;8427;52.204;7.202;2023-04-24T03:51:56;47.30;;;42.87;;
16626;SDS011;8427;52.204;7.202;2023-04-24T03:54:25;50.87;;;46.00;;
16626;SDS011;8427;52.204;7.202;2023-04-24T03:56:53;38.17;;;36.23;;
16626;SDS011;8427;52.204;7.202;2023-04-24T03:59:21;37.13;;;35.43;;
16626;SDS011;8427;52.204;7.202;2023-04-24T04:01:49;36.40;;;34.83;;
16626;SDS011;8427;52.204;7.202;2023-04-24T04:04:17;36.80;;;35.10;;
16626;SDS011;8427;52.204;7.202;2023-04-24T04:06:45;37.83;;;36.03;;
16626;SDS011;8427;52.204;7.202;2023-04-24T04:09:13;37.30;;;35.60;;
16626;SDS011;8427;52.204;7.202;2023-04-24T04:11:43;36.40;;;34.90;;
16626;SDS011;8427;52.204;7.202;2023-04-24T04:14:11;36.17;;;34.67;;
16626;SDS011;8427;52.204;7.202;2023-04-24T04:16:39;36.73;;;35.07;;
16626;SDS011;8427;52.204;7.202;2023-04-24T04:19:08;38.17;;;36.40;;
16626;SDS011;8427;52.204;7.202;2023-04-24T04:21:36;35.93;;;34.43;;
16626;SDS011;8427;52.204;7.202;2023-04-24T04:24:04;36.60;;;35.00;;
16626;SDS011;8427;52.204;7.202;2023-04-24T04:26:33;35.80;;;34.30;;
16626;SDS011;8427;52.204;7.202;2023-04-24T04:29:03;36.27;;;34.77;;
16626;SDS011;8427;52.204;7.202;2023-04-24T04:31:32;38.43;;;36.70;;
16626;SDS011;8427;52.204;7.202;2023-04-24T04:34:00;36.27;;;34.67;;
16626;SDS011;8427;52.204;7.202;2023-04-24T04:36:29;36.63;;;35.10;;
16626;SDS011;8427;52.204;7.202;2023-04-24T04:38:57;37.20;;;35.50;;
16626;SDS011;8427;52.204;7.202;2023-04-24T04:41:26;35.87;;;34.37;;
16626;SDS011;8427;52.204;7.202;2023-04-24T04:43:54;36.30;;;34.80;;
16626;SDS011;8427;52.204;7.202;2023-04-24T04:46:26;35.47;;;34.00;;
16626;SDS011;8427;52.204;7.202;2023-04-24T04:48:58;35.77;;;34.27;;
16626;SDS011;8427;52.204;7.202;2023-04-24T04:51:27;37.23;;;35.50;;
16626;SDS011;8427;52.204;7.202;2023-04-24T04:53:55;35.87;;;34.37;;
16626;SDS011;8427;52.204;7.202;2023-04-24T04:56:23;35.93;;;34.43;;
16626;SDS011;8427;52.204;7.202;2023-04-24T04:58:51;36.33;;;34.73;;
16626;SDS011;8427;52.204;7.202;2023-04-24T05:01:20;36.10;;;34.50;;
16626;SDS011;8427;52.204;7.202;2023-04-24T05:03:50;36.97;;;35.27;;
16626;SDS011;8427;52.204;7.202;2023-04-24T05:06:19;39.13;;;37.33;;
16626;SDS011;8427;52.204;7.202;2023-04-24T05:08:49;35.93;;;34.43;;
16626;SDS011;8427;52.204;7.202;2023-04-24T05:11:22;38.17;;;36.37;;
16626;SDS011;8427;52.204;7.202;2023-04-24T05:13:50;36.50;;;34.90;;
16626;SDS011;8427;52.204;7.202;2023-04-24T05:16:18;37.17;;;35.50;;
16626;SDS011;8427;52.204;7.202;2023-04-24T05:18:46;37.93;;;36.23;;
16626;SDS011;8427;52.204;7.202;2023-04-24T05:21:15;38.90;;;37.10;;
16626;SDS011;8427;52.204;7.202;2023-04-24T05:23:43;38.90;;;36.87;;
16626;SDS011;8427;52.204;7.202;2023-04-24T05:26:12;37.83;;;36.13;;
16626;SDS011;8427;52.204;7.202;2023-04-24T05:28:41;36.63;;;35.03;;
16626;SDS011;8427;52.204;7.202;2023-04-24T05:31:09;36.70;;;35.10;;
16626;SDS011;8427;52.204;7.202;2023-04-24T05:33:38;37.27;;;35.57;;
16626;SDS011;8427;52.204;7.202;2023-04-24T05:36:06;36.20;;;34.70;;
16626;SDS011;8427;52.204;7.202;2023-04-24T05:38:35;37.50;;;35.80;;
16626;SDS011;8427;52.204;7.202;2023-04-24T05:41:03;37.13;;;35.42;;
16626;SDS011;8427;52.204;7.202;2023-04-24T05:43:31;36.83;;;35.23;;
16626;SDS011;8427;52.204;7.202;2023-04-24T05:45:59;36.70;;;35.10;;
16626;SDS011;8427;52.204;7.202;2023-04-24T05:48:27;36.97;;;35.37;;
16626;SDS011;8427;52.204;7.202;2023-04-24T05:50:56;39.10;;;37.30;;
16626;SDS011;8427;52.204;7.202;2023-04-24T05:53:24;37.90;;;36.20;;
16626;SDS011;8427;52.204;7.202;2023-04-24T05:55:53;37.63;;;35.80;;
16626;SDS011;8427;52.204;7.202;2023-04-24T05:58:21;38.80;;;37.00;;
16626;SDS011;8427;52.204;7.202;2023-04-24T06:00:49;37.50;;;35.80;;
16626;SDS011;8427;52.204;7.202;2023-04-24T06:03:17;36.70;;;35.10;;
16626;SDS011;8427;52.204;7.202;2023-04-24T06:05:45;37.33;;;35.63;;
16626;SDS011;8427;52.204;7.202;2023-04-24T06:08:13;37.80;;;36.10;;
16626;SDS011;8427;52.204;7.202;2023-04-24T06:10:41;37.83;;;36.13;;
16626;SDS011;8427;52.204;7.202;2023-04-24T06:13:10;37.17;;;35.47;;
16626;SDS011;8427;52.204;7.202;2023-04-24T06:15:38;37.57;;;35.83;;
16626;SDS011;8427;52.204;7.202;2023-04-24T06:18:07;38.97;;;36.97;;
16626;SDS011;8427;52.204;7.202;2023-04-24T06:20:36;37.33;;;35.63;;
16626;SDS011;8427;52.204;7.202;2023-04-24T06:23:04;37.30;;;35.60;;
16626;SDS011;8427;52.204;7.202;2023-04-24T06:25:32;37.93;;;36.13;;
16626;SDS011;8427;52.204;7.202;2023-04-24T06:28:00;37.20;;;35.50;;
16626;SDS011;8427;52.204;7.202;2023-04-24T06:33:37;38.37;;;36.57;;
16626;SDS011;8427;52.204;7.202;2023-04-24T06:36:05;38.43;;;36.63;;
16626;SDS011;8427;52.204;7.202;2023-04-24T06:38:33;37.83;;;36.03;;
16626;SDS011;8427;52.204;7.202;2023-04-24T06:41:02;38.30;;;36.40;;
16626;SDS011;8427;52.204;7.202;2023-04-24T06:43:31;38.20;;;36.40;;
16626;SDS011;8427;52.204;7.202;2023-04-24T06:46:00;38.10;;;36.30;;
16626;SDS011;8427;52.204;7.202;2023-04-24T06:48:29;38.57;;;36.67;;
16626;SDS011;8427;52.204;7.202;2023-04-24T06:50:57;38.50;;;36.60;;
16626;SDS011;8427;52.204;7.202;2023-04-24T06:53:25;38.47;;;36.57;;
16626;SDS011;8427;52.204;7.202;2023-04-24T06:55:53;38.33;;;36.43;;
16626;SDS011;8427;52.204;7.202;2023-04-24T06:58:21;38.60;;;36.70;;
16626;SDS011;8427;52.204;7.202;2023-04-24T07:00:49;39.00;;;37.00;;
16626;SDS011;8427;52.204;7.202;2023-04-24T07:03:19;38.77;;;36.77;;
16626;SDS011;8427;52.204;7.202;2023-04-24T07:05:47;40.70;;;38.50;;
16626;SDS011;8427;52.204;7.202;2023-04-24T07:08:16;40.00;;;37.80;;
16626;SDS011;8427;52.204;7.202;2023-04-24T07:10:44;39.43;;;37.33;;
16626;SDS011;8427;52.204;7.202;2023-04-24T07:13:12;40.03;;;37.93;;
16626;SDS011;8427;52.204;7.202;2023-04-24T07:15:40;39.00;;;37.00;;
16626;SDS011;8427;52.204;7.202;2023-04-24T07:18:08;39.87;;;37.77;;
16626;SDS011;8427;52.204;7.202;2023-04-24T07:20:38;40.00;;;37.90;;
16626;SDS011;8427;52.204;7.202;2023-04-24T07:23:06;39.60;;;37.50;;
16626;SDS011;8427;52.204;7.202;2023-04-24T07:25:34;39.47;;;37.37;;
16626;SDS011;8427;52.204;7.202;2023-04-24T07:28:02;39.40;;;37.30;;
16626;SDS011;8427;52.204;7.202;2023-04-24T07:30:30;41.70;;;39.30;;
16626;SDS011;8427;52.204;7.202;2023-04-24T07:32:59;41.05;;;38.65;;
16626;SDS011;8427;52.204;7.202;2023-04-24T07:35:27;41.92;;;39.42;;
16626;SDS011;8427;52.204;7.202;2023-04-24T07:37:56;41.10;;;38.70;;
16626;SDS011;8427;52.204;7.202;2023-04-24T07:40:24;40.27;;;37.97;;
16626;SDS011;8427;52.204;7.202;2023-04-24T07:42:52;40.27;;;37.97;;
16626;SDS011;8427;52.204;7.202;2023-04-24T07:45:20;40.20;;;37.90;;
16626;SDS011;8427;52.204;7.202;2023-04-24T07:47:49;41.80;;;39.30;;
16626;SDS011;8427;52.204;7.202;2023-04-24T07:50:18;41.27;;;38.77;;
16626;SDS011;8427;52.204;7.202;2023-04-24T07:52:46;41.97;;;39.37;;
16626;SDS011;8427;52.204;7.202;2023-04-24T07:55:15;41.67;;;39.07;;
16626;SDS011;8427;52.204;7.202;2023-04-24T07:57:46;41.10;;;38.60;;
16626;SDS011;8427;52.204;7.202;2023-04-24T08:00:15;41.60;;;39.00;;
16626;SDS011;8427;52.204;7.202;2023-04-24T08:02:43;42.50;;;39.90;;
16626;SDS011;8427;52.204;7.202;2023-04-24T08:05:11;42.80;;;40.10;;
16626;SDS011;8427;52.204;7.202;2023-04-24T08:07:39;42.10;;;39.60;;
16626;SDS011;8427;52.204;7.202;2023-04-24T08:10:09;39.97;;;37.77;;
16626;SDS011;8427;52.204;7.202;2023-04-24T08:12:39;39.33;;;37.23;;
16626;SDS011;8427;52.204;7.202;2023-04-24T08:15:07;39.30;;;37.20;;
16626;SDS011;8427;52.204;7.202;2023-04-24T08:17:36;38.70;;;36.70;;
16626;SDS011;8427;52.204;7.202;2023-04-24T08:20:04;38.10;;;36.20;;
16626;SDS011;8427;52.204;7.202;2023-04-24T08:22:36;38.43;;;36.43;;
16626;SDS011;8427;52.204;7.202;2023-04-24T08:25:04;39.07;;;36.87;;
16626;SDS011;8427;52.204;7.202;2023-04-24T08:27:33;38.40;;;36.50;;
16626;SDS011;8427;52.204;7.202;2023-04-24T08:30:04;37.20;;;35.50;;
16626;SDS011;8427;52.204;7.202;2023-04-24T08:32:34;36.87;;;35.27;;
16626;SDS011;8427;52.204;7.202;2023-04-24T08:35:04;36.43;;;34.83;;
16626;SDS011;8427;52.204;7.202;2023-04-24T08:37:35;36.80;;;35.20;;
16626;SDS011;8427;52.204;7.202;2023-04-24T08:40:05;36.17;;;34.63;;
16626;SDS011;8427;52.204;7.202;2023-04-24T08:42:39;36.33;;;34.73;;
16626;SDS011;8427;52.204;7.202;2023-04-24T08:45:12;35.97;;;34.47;;
16626;SDS011;8427;52.204;7.202;2023-04-24T08:47:41;36.20;;;34.70;;
16626;SDS011;8427;52.204;7.202;2023-04-24T08:50:10;36.23;;;34.63;;
16626;SDS011;8427;52.204;7.202;2023-04-24T08:52:38;35.60;;;34.13;;
16626;SDS011;8427;52.204;7.202;2023-04-24T08:55:07;36.53;;;35.03;;
16626;SDS011;8427;52.204;7.202;2023-04-24T08:57:36;35.40;;;34.00;;
16626;SDS011;8427;52.204;7.202;2023-04-24T09:00:06;35.37;;;33.97;;
16626;SDS011;8427;52.204;7.202;2023-04-24T09:02:40;35.43;;;34.03;;
16626;SDS011;8427;52.204;7.202;2023-04-24T09:05:10;36.23;;;34.63;;
16626;SDS011;8427;52.204;7.202;2023-04-24T09:07:40;37.30;;;35.50;;
16626;SDS011;8427;52.204;7.202;2023-04-24T09:10:13;35.00;;;33.60;;
16626;SDS011;8427;52.204;7.202;2023-04-24T09:12:42;34.70;;;33.30;;
16626;SDS011;8427;52.204;7.202;2023-04-24T09:15:11;34.80;;;33.47;;
16626;SDS011;8427;52.204;7.202;2023-04-24T09:17:41;35.87;;;34.47;;
16626;SDS011;8427;52.204;7.202;2023-04-24T09:20:10;35.00;;;33.60;;
16626;SDS011;8427;52.204;7.202;2023-04-24T09:22:38;34.70;;;33.30;;
16626;SDS011;8427;52.204;7.202;2023-04-24T09:25:07;35.63;;;34.10;;
16626;SDS011;8427;52.204;7.202;2023-04-24T09:27:41;35.07;;;33.67;;
16626;SDS011;8427;52.204;7.202;2023-04-24T09:30:10;35.63;;;34.13;;
16626;SDS011;8427;52.204;7.202;2023-04-24T09:32:41;34.60;;;33.30;;
16626;SDS011;8427;52.204;7.202;2023-04-24T09:35:10;34.80;;;33.40;;
16626;SDS011;8427;52.204;7.202;2023-04-24T09:37:40;34.70;;;33.40;;
16626;SDS011;8427;52.204;7.202;2023-04-24T09:40:10;35.83;;;34.23;;
16626;SDS011;8427;52.204;7.202;2023-04-24T09:42:40;35.10;;;33.70;;
16626;SDS011;8427;52.204;7.202;2023-04-24T09:45:11;34.60;;;33.30;;
16626;SDS011;8427;52.204;7.202;2023-04-24T09:47:42;35.23;;;33.83;;
16626;SDS011;8427;52.204;7.202;2023-04-24T09:50:12;34.93;;;33.53;;
16626;SDS011;8427;52.204;7.202;2023-04-24T09:52:42;34.20;;;32.90;;
16626;SDS011;8427;52.204;7.202;2023-04-24T09:55:15;34.90;;;33.50;;
16626;SDS011;8427;52.204;7.202;2023-04-24T09:57:52;35.00;;;33.63;;
16626;SDS011;8427;52.204;7.202;2023-04-24T10:00:22;35.80;;;34.20;;
16626;SDS011;8427;52.204;7.202;2023-04-24T10:02:55;34.37;;;33.07;;
16626;SDS011;8427;52.204;7.202;2023-04-24T10:05:24;34.73;;;33.33;;
16626;SDS011;8427;52.204;7.202;2023-04-24T10:07:58;34.70;;;33.40;;
16626;SDS011;8427;52.204;7.202;2023-04-24T10:10:29;35.17;;;33.67;;
16626;SDS011;8427;52.204;7.202;2023-04-24T10:12:57;34.47;;;33.17;;
16626;SDS011;8427;52.204;7.202;2023-04-24T10:15:26;35.00;;;33.60;;
16626;SDS011;8427;52.204;7.202;2023-04-24T10:17:57;34.60;;;33.30;;
16626;SDS011;8427;52.204;7.202;2023-04-24T10:20:27;34.40;;;33.10;;
16626;SDS011;8427;52.204;7.202;2023-04-24T10:22:57;35.90;;;34.40;;
16626;SDS011;8427;52.204;7.202;2023-04-24T10:25:26;35.20;;;33.70;;
16626;SDS011;8427;52.204;7.202;2023-04-24T10:27:56;34.43;;;33.13;;
16626;SDS011;8427;52.204;7.202;2023-04-24T10:30:26;35.13;;;33.73;;
16626;SDS011;8427;52.204;7.202;2023-04-24T10:32:56;33.63;;;32.43;;
16626;SDS011;8427;52.204;7.202;2023-04-24T10:35:25;33.53;;;32.33;;
16626;SDS011;8427;52.204;7.202;2023-04-24T10:37:54;33.53;;;32.33;;
16626;SDS011;8427;52.204;7.202;2023-04-24T10:40:25;33.30;;;32.10;;
16626;SDS011;8427;52.204;7.202;2023-04-24T10:42:55;35.87;;;34.37;;
16626;SDS011;8427;52.204;7.202;2023-04-24T10:45:24;33.73;;;32.50;;
16626;SDS011;8427;52.204;7.202;2023-04-24T10:47:57;33.10;;;31.90;;
16626;SDS011;8427;52.204;7.202;2023-04-24T10:50:41;33.30;;;32.10;;
16626;SDS011;8427;52.204;7.202;2023-04-24T10:53:15;33.30;;;32.10;;
16626;SDS011;8427;52.204;7.202;2023-04-24T10:55:46;34.83;;;33.33;;
16626;SDS011;8427;52.204;7.202;2023-04-24T10:58:15;33.17;;;31.97;;
16626;SDS011;8427;52.204;7.202;2023-04-24T11:00:44;33.07;;;31.87;;
16626;SDS011;8427;52.204;7.202;2023-04-24T11:03:24;34.47;;;32.90;;
16626;SDS011;8427;52.204;7.202;2023-04-24T11:05:58;33.60;;;32.40;;
16626;SDS011;8427;52.204;7.202;2023-04-24T11:08:29;32.87;;;31.70;;
16626;SDS011;8427;52.204;7.202;2023-04-24T11:11:00;33.20;;;32.00;;
16626;SDS011;8427;52.204;7.202;2023-04-24T11:16:31;33.10;;;31.90;;
16626;SDS011;8427;52.204;7.202;2023-04-24T11:19:04;34.63;;;33.33;;
16626;SDS011;8427;52.204;7.202;2023-04-24T11:21:43;33.43;;;32.23;;
16626;SDS011;8427;52.204;7.202;2023-04-24T11:24:23;33.90;;;32.70;;
16626;SDS011;8427;52.204;7.202;2023-04-24T11:26:51;34.53;;;33.13;;
16626;SDS011;8427;52.204;7.202;2023-04-24T11:29:21;33.17;;;31.97;;
16626;SDS011;8427;52.204;7.202;2023-04-24T11:31:51;33.53;;;32.33;;
16626;SDS011;8427;52.204;7.202;2023-04-24T11:34:20;34.43;;;33.13;;
16626;SDS011;8427;52.204;7.202;2023-04-24T11:36:49;34.67;;;33.27;;
16626;SDS011;8427;52.204;7.202;2023-04-24T11:39:17;35.90;;;34.40;;
16626;SDS011;8427;52.204;7.202;2023-04-24T11:41:45;34.83;;;33.43;;
16626;SDS011;8427;52.204;7.202;2023-04-24T11:44:14;36.33;;;34.70;;
16626;SDS011;8427;52.204;7.202;2023-04-24T11:46:47;35.67;;;34.17;;
16626;SDS011;8427;52.204;7.202;2023-04-24T11:49:15;38.37;;;36.67;;
16626;SDS011;8427;52.204;7.202;2023-04-24T11:51:44;35.10;;;33.63;;
16626;SDS011;8427;52.204;7.202;2023-04-24T11:54:19;34.97;;;33.57;;
16626;SDS011;8427;52.204;7.202;2023-04-24T11:56:47;34.87;;;33.47;;
16626;SDS011;8427;52.204;7.202;2023-04-24T11:59:15;37.37;;;35.70;;
16626;SDS011;8427;52.204;7.202;2023-04-24T12:01:43;34.73;;;33.33;;
16626;SDS011;8427;52.204;7.202;2023-04-24T12:04:12;35.70;;;34.17;;
16626;SDS011;8427;52.204;7.202;2023-04-24T12:09:40;34.33;;;33.03;;
16626;SDS011;8427;52.204;7.202;2023-04-24T12:12:09;35.27;;;33.87;;
16626;SDS011;8427;52.204;7.202;2023-04-24T12:14:42;34.07;;;32.77;;
16626;SDS011;8427;52.204;7.202;2023-04-24T12:17:11;35.97;;;34.37;;
16626;SDS011;8427;52.204;7.202;2023-04-24T12:19:44;34.50;;;33.10;;
16626;SDS011;8427;52.204;7.202;2023-04-24T12:22:14;35.00;;;33.60;;
16626;SDS011;8427;52.204;7.202;2023-04-24T12:24:55;35.50;;;34.10;;
16626;SDS011;8427;52.204;7.202;2023-04-24T12:27:24;34.53;;;33.23;;
16626;SDS011;8427;52.204;7.202;2023-04-24T12:29:53;35.33;;;33.93;;
16626;SDS011;8427;52.204;7.202;2023-04-24T12:32:22;36.50;;;35.00;;
16626;SDS011;8427;52.204;7.202;2023-04-24T12:34:53;38.57;;;36.73;;
16626;SDS011;8427;52.204;7.202;2023-04-24T12:37:24;39.42;;;37.33;;
16626;SDS011;8427;52.204;7.202;2023-04-24T12:39:59;42.60;;;39.80;;
16626;SDS011;8427;52.204;7.202;2023-04-24T12:42:28;43.08;;;40.35;;
16626;SDS011;8427;52.204;7.202;2023-04-24T12:44:57;41.90;;;39.40;;
16626;SDS011;8427;52.204;7.202;2023-04-24T12:47:27;42.30;;;39.80;;
16626;SDS011;8427;52.204;7.202;2023-04-24T12:49:55;42.60;;;40.00;;
16626;SDS011;8427;52.204;7.202;2023-04-24T12:52:25;42.60;;;39.90;;
16626;SDS011;8427;52.204;7.202;2023-04-24T12:54:54;45.53;;;42.22;;
16626;SDS011;8427;52.204;7.202;2023-04-24T12:57:25;44.58;;;41.38;;
16626;SDS011;8427;52.204;7.202;2023-04-24T12:59:53;46.08;;;42.78;;
16626;SDS011;8427;52.204;7.202;2023-04-24T13:02:22;43.55;;;40.55;;
16626;SDS011;8427;52.204;7.202;2023-04-24T13:04:51;43.90;;;40.90;;
16626;SDS011;8427;52.204;7.202;2023-04-24T13:07:20;42.40;;;39.70;;
16626;SDS011;8427;52.204;7.202;2023-04-24T13:09:49;43.10;;;40.30;;
16626;SDS011;8427;52.204;7.202;2023-04-24T13:12:18;43.38;;;40.58;;
16626;SDS011;8427;52.204;7.202;2023-04-24T13:14:47;43.50;;;40.60;;
16626;SDS011;8427;52.204;7.202;2023-04-24T13:17:15;42.90;;;40.20;;
16626;SDS011;8427;52.204;7.202;2023-04-24T13:19:45;44.38;;;41.38;;
16626;SDS011;8427;52.204;7.202;2023-04-24T13:22:13;42.73;;;40.03;;
16626;SDS011;8427;52.204;7.202;2023-04-24T13:24:41;43.00;;;40.30;;
16626;SDS011;8427;52.204;7.202;2023-04-24T13:27:11;42.78;;;40.17;;
16626;SDS011;8427;52.204;7.202;2023-04-24T13:29:39;43.70;;;40.80;;
16626;SDS011;8427;52.204;7.202;2023-04-24T13:32:07;43.30;;;40.50;;
16626;SDS011;8427;52.204;7.202;2023-04-24T13:34:35;44.28;;;41.20;;
16626;SDS011;8427;52.204;7.202;2023-04-24T13:37:04;43.60;;;40.80;;
16626;SDS011;8427;52.204;7.202;2023-04-24T13:39:32;43.10;;;40.40;;
16626;SDS011;8427;52.204;7.202;2023-04-24T13:42:01;43.30;;;40.50;;
16626;SDS011;8427;52.204;7.202;2023-04-24T13:44:32;43.20;;;40.40;;
16626;SDS011;8427;52.204;7.202;2023-04-24T13:47:00;43.50;;;40.50;;
16626;SDS011;8427;52.204;7.202;2023-04-24T13:49:28;43.20;;;40.40;;
16626;SDS011;8427;52.204;7.202;2023-04-24T13:51:56;43.50;;;40.60;;
16626;SDS011;8427;52.204;7.202;2023-04-24T13:54:23;43.63;;;40.63;;
16626;SDS011;8427;52.204;7.202;2023-04-24T13:56:52;43.00;;;40.20;;
16626;SDS011;8427;52.204;7.202;2023-04-24T13:59:20;43.20;;;40.40;;
16626;SDS011;8427;52.204;7.202;2023-04-24T14:01:49;43.77;;;40.87;;
16626;SDS011;8427;52.204;7.202;2023-04-24T14:04:18;44.13;;;40.97;;
16626;SDS011;8427;52.204;7.202;2023-04-24T14:06:46;45.20;;;41.90;;
16626;SDS011;8427;52.204;7.202;2023-04-24T14:09:14;44.38;;;41.17;;
16626;SDS011;8427;52.204;7.202;2023-04-24T14:11:43;44.17;;;41.10;;
16626;SDS011;8427;52.204;7.202;2023-04-24T14:14:11;45.25;;;41.90;;
16626;SDS011;8427;52.204;7.202;2023-04-24T14:16:39;44.50;;;41.37;;
16626;SDS011;8427;52.204;7.202;2023-04-24T14:19:08;44.65;;;41.55;;
16626;SDS011;8427;52.204;7.202;2023-04-24T14:21:36;43.50;;;40.60;;
16626;SDS011;8427;52.204;7.202;2023-04-24T14:24:04;43.78;;;40.88;;
16626;SDS011;8427;52.204;7.202;2023-04-24T14:26:33;42.80;;;40.10;;
16626;SDS011;8427;52.204;7.202;2023-04-24T14:29:01;42.70;;;40.00;;
16626;SDS011;8427;52.204;7.202;2023-04-24T14:31:40;43.07;;;40.27;;
16626;SDS011;8427;52.204;7.202;2023-04-24T14:34:11;43.50;;;40.60;;
16626;SDS011;8427;52.204;7.202;2023-04-24T14:36:41;43.35;;;40.42;;
16626;SDS011;8427;52.204;7.202;2023-04-24T14:39:09;43.83;;;40.83;;
16626;SDS011;8427;52.204;7.202;2023-04-24T14:41:37;44.30;;;41.10;;
16626;SDS011;8427;52.204;7.202;2023-04-24T14:44:06;44.60;;;41.30;;
16626;SDS011;8427;52.204;7.202;2023-04-24T14:46:34;43.80;;;40.80;;
16626;SDS011;8427;52.204;7.202;2023-04-24T14:49:02;43.60;;;40.60;;
16626;SDS011;8427;52.204;7.202;2023-04-24T14:51:32;43.55;;;40.55;;
16626;SDS011;8427;52.204;7.202;2023-04-24T14:54:00;43.58;;;40.58;;
16626;SDS011;8427;52.204;7.202;2023-04-24T14:56:28;43.83;;;40.80;;
16626;SDS011;8427;52.204;7.202;2023-04-24T14:58:57;44.03;;;40.95;;
16626;SDS011;8427;52.204;7.202;2023-04-24T15:01:25;44.10;;;40.80;;
16626;SDS011;8427;52.204;7.202;2023-04-24T15:03:53;44.45;;;41.15;;
16626;SDS011;8427;52.204;7.202;2023-04-24T15:06:21;44.03;;;40.92;;
16626;SDS011;8427;52.204;7.202;2023-04-24T15:08:51;44.20;;;41.00;;
16626;SDS011;8427;52.204;7.202;2023-04-24T15:11:19;43.80;;;40.80;;